Loco Hills, New Mexico
Current Conditions -  °F | °C
As of 7:53 PM on Friday 21 Nov 2014 (Local Time) from KCNM Reporting Station
Clear Clear  
Wind Chill: 51°   Ceiling: Unl
Heat Index: 51°   Visibility: 10mi
Dew Point: 33°   Wind: 8mph
Humidity: 50%   Direction: 180°S
Pressure: 29.97"   Gusts: NA
Location:  32.82°N, 103.98°W
Report Text: KCNM 220253Z AUTO 18007KT 10SM CLR 11/01 A2997 RMK AO2 SLP130 T01060006 53012
Loading
Personal Weather Stations






























Interactive Weather Map New forecast layout! Learn more

10-Day Weather Forecast

Advertisements
Track Severe Weather on mobile